Arboga, California
Current Conditions -  °F | °C
As of 9:53 PM on Saturday 25 Oct 2014 (Local Time) from KMYV Reporting Station
Few Clouds Few Clouds  
Wind Chill: 16°   Ceiling: Unl
Heat Index: 16°   Visibility: 10mi
Dew Point: 12°   Wind: 10mph
Humidity: 78%   Direction: 200°SSW
Pressure: 30.09"   Gusts: NA
Location:  39.0904°N, 121.552°W
Report Text: KMYV 260453Z AUTO 20009KT 10SM FEW110 16/12 A3009 RMK AO2 SLP191 T01560117 $
Loading
Personal Weather Stations






























Interactive Weather Map
Tropical Storm Tracking
New forecast layout! Learn more

10-Day Weather Forecast

Advertisements
Track Severe Weather on mobile